sensor_id;sensor_type;location;lat;lon;timestamp;pressure;altitude;pressure_sealevel;temperature;humidity
47524;BME280;33253;42.144;25.884;2023-03-19T00:01:59;101050.75;;;7.10;78.72
47524;BME280;33253;42.144;25.884;2023-03-19T00:04:25;101053.34;;;7.10;78.57
47524;BME280;33253;42.144;25.884;2023-03-19T00:06:51;101055.97;;;7.11;77.75
47524;BME280;33253;42.144;25.884;2023-03-19T00:09:17;101052.03;;;7.17;78.11
47524;BME280;33253;42.144;25.884;2023-03-19T00:11:43;101056.19;;;7.15;77.10
47524;BME280;33253;42.144;25.884;2023-03-19T00:14:08;101057.13;;;7.02;76.79
47524;BME280;33253;42.144;25.884;2023-03-19T00:16:34;101045.88;;;7.00;77.22
47524;BME280;33253;42.144;25.884;2023-03-19T00:19:00;101051.38;;;7.06;77.26
47524;BME280;33253;42.144;25.884;2023-03-19T00:21:26;101040.75;;;7.00;76.98
47524;BME280;33253;42.144;25.884;2023-03-19T00:23:52;101052.88;;;7.02;76.94
47524;BME280;33253;42.144;25.884;2023-03-19T00:26:17;101055.34;;;7.01;75.90
47524;BME280;33253;42.144;25.884;2023-03-19T00:28:43;101057.84;;;6.99;76.09
47524;BME280;33253;42.144;25.884;2023-03-19T00:31:09;101047.94;;;7.05;77.13
47524;BME280;33253;42.144;25.884;2023-03-19T00:33:36;101047.41;;;7.11;77.01
47524;BME280;33253;42.144;25.884;2023-03-19T00:36:01;101047.78;;;7.17;77.08
47524;BME280;33253;42.144;25.884;2023-03-19T00:38:27;101044.41;;;7.18;77.03
47524;BME280;33253;42.144;25.884;2023-03-19T00:40:53;101044.50;;;7.20;76.97
47524;BME280;33253;42.144;25.884;2023-03-19T00:43:18;101041.50;;;7.27;77.36
47524;BME280;33253;42.144;25.884;2023-03-19T00:45:44;101037.72;;;7.35;77.31
47524;BME280;33253;42.144;25.884;2023-03-19T00:48:09;101036.31;;;7.40;77.34
47524;BME280;33253;42.144;25.884;2023-03-19T00:50:35;101035.69;;;7.44;77.07
47524;BME280;33253;42.144;25.884;2023-03-19T00:53:00;101034.97;;;7.47;76.55
47524;BME280;33253;42.144;25.884;2023-03-19T00:55:27;101035.78;;;7.46;76.17
47524;BME280;33253;42.144;25.884;2023-03-19T00:57:52;101046.13;;;7.48;77.14
47524;BME280;33253;42.144;25.884;2023-03-19T01:00:18;101032.41;;;7.47;77.50
47524;BME280;33253;42.144;25.884;2023-03-19T01:02:44;101029.56;;;7.42;76.67
47524;BME280;33253;42.144;25.884;2023-03-19T01:05:11;101029.47;;;7.41;77.53
47524;BME280;33253;42.144;25.884;2023-03-19T01:07:37;101030.97;;;7.37;77.66
47524;BME280;33253;42.144;25.884;2023-03-19T01:10:02;101032.81;;;7.25;78.42
47524;BME280;33253;42.144;25.884;2023-03-19T01:12:28;101025.81;;;7.22;78.18
47524;BME280;33253;42.144;25.884;2023-03-19T01:14:53;101029.81;;;7.17;78.45
47524;BME280;33253;42.144;25.884;2023-03-19T01:17:18;101031.75;;;7.21;78.61
47524;BME280;33253;42.144;25.884;2023-03-19T01:19:44;101037.88;;;7.23;79.46
47524;BME280;33253;42.144;25.884;2023-03-19T01:22:10;101031.03;;;7.24;78.85
47524;BME280;33253;42.144;25.884;2023-03-19T01:24:35;101027.97;;;7.29;79.59
47524;BME280;33253;42.144;25.884;2023-03-19T01:27:02;101026.19;;;7.28;79.08
47524;BME280;33253;42.144;25.884;2023-03-19T01:29:27;101023.63;;;7.28;79.32
47524;BME280;33253;42.144;25.884;2023-03-19T01:31:52;101031.16;;;7.25;78.99
47524;BME280;33253;42.144;25.884;2023-03-19T01:34:18;101035.84;;;7.33;78.61
47524;BME280;33253;42.144;25.884;2023-03-19T01:36:43;101040.66;;;7.41;77.58
47524;BME280;33253;42.144;25.884;2023-03-19T01:39:08;101033.81;;;7.42;77.07
47524;BME280;33253;42.144;25.884;2023-03-19T01:41:35;101032.59;;;7.50;76.89
47524;BME280;33253;42.144;25.884;2023-03-19T01:44:01;101033.03;;;7.58;76.19
47524;BME280;33253;42.144;25.884;2023-03-19T01:46:30;101027.34;;;7.64;76.20
47524;BME280;33253;42.144;25.884;2023-03-19T01:48:57;101034.34;;;7.66;77.21
47524;BME280;33253;42.144;25.884;2023-03-19T01:51:45;101029.41;;;7.69;77.39
47524;BME280;33253;42.144;25.884;2023-03-19T01:54:13;101022.50;;;7.68;77.06
47524;BME280;33253;42.144;25.884;2023-03-19T01:56:39;101025.34;;;7.73;77.04
47524;BME280;33253;42.144;25.884;2023-03-19T01:59:08;101024.44;;;7.72;77.32
47524;BME280;33253;42.144;25.884;2023-03-19T02:01:36;101032.25;;;7.59;77.58
47524;BME280;33253;42.144;25.884;2023-03-19T02:04:05;101027.47;;;7.65;78.29
47524;BME280;33253;42.144;25.884;2023-03-19T02:06:31;101035.84;;;7.63;79.79
47524;BME280;33253;42.144;25.884;2023-03-19T02:08:57;101031.19;;;7.70;80.28
47524;BME280;33253;42.144;25.884;2023-03-19T02:11:23;101029.75;;;7.75;80.95
47524;BME280;33253;42.144;25.884;2023-03-19T02:13:49;101030.13;;;7.82;80.49
47524;BME280;33253;42.144;25.884;2023-03-19T02:16:15;101033.91;;;7.88;80.85
47524;BME280;33253;42.144;25.884;2023-03-19T02:18:41;101031.88;;;7.98;79.30
47524;BME280;33253;42.144;25.884;2023-03-19T02:21:10;101031.03;;;7.99;77.70
47524;BME280;33253;42.144;25.884;2023-03-19T02:26:05;101037.81;;;7.97;77.13
47524;BME280;33253;42.144;25.884;2023-03-19T02:28:30;101039.84;;;7.87;77.57
47524;BME280;33253;42.144;25.884;2023-03-19T02:30:56;101035.25;;;7.82;78.07
47524;BME280;33253;42.144;25.884;2023-03-19T02:33:22;101036.84;;;7.65;77.92
47524;BME280;33253;42.144;25.884;2023-03-19T02:35:48;101038.78;;;7.54;78.58
47524;BME280;33253;42.144;25.884;2023-03-19T02:38:14;101045.09;;;7.44;79.07
47524;BME280;33253;42.144;25.884;2023-03-19T02:40:45;101054.16;;;7.24;78.90
47524;BME280;33253;42.144;25.884;2023-03-19T02:43:12;101052.13;;;7.18;79.68
47524;BME280;33253;42.144;25.884;2023-03-19T02:45:38;101067.78;;;7.08;79.07
47524;BME280;33253;42.144;25.884;2023-03-19T02:48:05;101055.41;;;7.16;79.21
47524;BME280;33253;42.144;25.884;2023-03-19T02:50:30;101058.50;;;7.25;78.68
47524;BME280;33253;42.144;25.884;2023-03-19T02:52:56;101057.38;;;7.35;77.94
47524;BME280;33253;42.144;25.884;2023-03-19T02:55:21;101062.78;;;7.39;77.59
47524;BME280;33253;42.144;25.884;2023-03-19T02:57:46;101066.69;;;7.48;77.75
47524;BME280;33253;42.144;25.884;2023-03-19T03:00:12;101074.75;;;7.54;78.18
47524;BME280;33253;42.144;25.884;2023-03-19T03:02:38;101078.38;;;7.57;76.37
47524;BME280;33253;42.144;25.884;2023-03-19T03:05:04;101076.97;;;7.63;76.42
47524;BME280;33253;42.144;25.884;2023-03-19T03:07:30;101081.31;;;7.64;76.25
47524;BME280;33253;42.144;25.884;2023-03-19T03:09:56;101087.09;;;7.59;76.13
47524;BME280;33253;42.144;25.884;2023-03-19T03:12:22;101086.81;;;7.55;75.86
47524;BME280;33253;42.144;25.884;2023-03-19T03:14:47;101084.78;;;7.49;76.95
47524;BME280;33253;42.144;25.884;2023-03-19T03:17:13;101090.44;;;7.43;76.42
47524;BME280;33253;42.144;25.884;2023-03-19T03:19:39;101084.84;;;7.36;76.15
47524;BME280;33253;42.144;25.884;2023-03-19T03:22:04;101085.19;;;7.42;76.63
47524;BME280;33253;42.144;25.884;2023-03-19T03:24:30;101086.28;;;7.45;76.40
47524;BME280;33253;42.144;25.884;2023-03-19T03:26:55;101098.50;;;7.50;75.69
47524;BME280;33253;42.144;25.884;2023-03-19T03:29:21;101095.50;;;7.57;75.87
47524;BME280;33253;42.144;25.884;2023-03-19T03:31:46;101091.25;;;7.57;74.17
47524;BME280;33253;42.144;25.884;2023-03-19T03:34:11;101099.41;;;7.50;74.74
47524;BME280;33253;42.144;25.884;2023-03-19T03:36:37;101098.34;;;7.47;74.91
47524;BME280;33253;42.144;25.884;2023-03-19T03:39:02;101097.25;;;7.43;74.83
47524;BME280;33253;42.144;25.884;2023-03-19T03:41:28;101102.03;;;7.37;75.16
47524;BME280;33253;42.144;25.884;2023-03-19T03:43:53;101100.66;;;7.28;75.94
47524;BME280;33253;42.144;25.884;2023-03-19T03:46:18;101105.84;;;7.15;75.93
47524;BME280;33253;42.144;25.884;2023-03-19T03:48:44;101107.06;;;7.07;77.14
47524;BME280;33253;42.144;25.884;2023-03-19T03:51:09;101113.19;;;7.09;76.45
47524;BME280;33253;42.144;25.884;2023-03-19T03:53:35;101111.50;;;7.09;76.24
47524;BME280;33253;42.144;25.884;2023-03-19T03:56:01;101121.38;;;7.17;76.13
47524;BME280;33253;42.144;25.884;2023-03-19T03:58:26;101124.31;;;7.23;75.74
47524;BME280;33253;42.144;25.884;2023-03-19T04:00:51;101123.41;;;7.22;76.08
47524;BME280;33253;42.144;25.884;2023-03-19T04:03:18;101123.41;;;7.22;76.29
47524;BME280;33253;42.144;25.884;2023-03-19T04:05:43;101117.94;;;7.31;76.60
47524;BME280;33253;42.144;25.884;2023-03-19T04:08:09;101111.59;;;7.39;76.44
47524;BME280;33253;42.144;25.884;2023-03-19T04:10:38;101115.25;;;7.43;76.82
47524;BME280;33253;42.144;25.884;2023-03-19T04:13:04;101108.94;;;7.38;76.20
47524;BME280;33253;42.144;25.884;2023-03-19T04:15:29;101109.13;;;7.41;76.36
47524;BME280;33253;42.144;25.884;2023-03-19T04:17:55;101116.13;;;7.43;76.17
47524;BME280;33253;42.144;25.884;2023-03-19T04:20:20;101107.88;;;7.34;75.81
47524;BME280;33253;42.144;25.884;2023-03-19T04:22:47;101110.78;;;7.25;75.78
47524;BME280;33253;42.144;25.884;2023-03-19T04:25:13;101114.41;;;7.29;76.09
47524;BME280;33253;42.144;25.884;2023-03-19T04:27:38;101118.84;;;7.32;75.93
47524;BME280;33253;42.144;25.884;2023-03-19T04:30:03;101128.41;;;7.34;76.17
47524;BME280;33253;42.144;25.884;2023-03-19T04:32:29;101130.16;;;7.20;74.46
47524;BME280;33253;42.144;25.884;2023-03-19T04:34:54;101132.53;;;7.17;74.79
47524;BME280;33253;42.144;25.884;2023-03-19T04:37:20;101131.66;;;7.17;75.02
47524;BME280;33253;42.144;25.884;2023-03-19T04:39:45;101133.31;;;7.16;74.68
47524;BME280;33253;42.144;25.884;2023-03-19T04:42:11;101134.09;;;7.15;73.97
47524;BME280;33253;42.144;25.884;2023-03-19T04:44:36;101137.56;;;7.16;74.12
47524;BME280;33253;42.144;25.884;2023-03-19T04:47:03;101142.31;;;7.09;75.31
47524;BME280;33253;42.144;25.884;2023-03-19T04:49:28;101146.22;;;6.89;75.88
47524;BME280;33253;42.144;25.884;2023-03-19T04:51:55;101144.44;;;6.88;76.60
47524;BME280;33253;42.144;25.884;2023-03-19T04:54:20;101145.44;;;6.90;76.43
47524;BME280;33253;42.144;25.884;2023-03-19T04:56:46;101150.56;;;6.90;76.04
47524;BME280;33253;42.144;25.884;2023-03-19T04:59:11;101153.16;;;6.77;78.33
47524;BME280;33253;42.144;25.884;2023-03-19T05:01:36;101154.72;;;6.75;80.17
47524;BME280;33253;42.144;25.884;2023-03-19T05:04:02;101149.78;;;6.78;81.05
47524;BME280;33253;42.144;25.884;2023-03-19T05:06:27;101154.94;;;6.78;81.47
47524;BME280;33253;42.144;25.884;2023-03-19T05:08:53;101152.53;;;6.68;81.67
47524;BME280;33253;42.144;25.884;2023-03-19T05:11:18;101152.53;;;6.68;82.05
47524;BME280;33253;42.144;25.884;2023-03-19T05:13:43;101158.47;;;6.67;82.66
47524;BME280;33253;42.144;25.884;2023-03-19T05:16:09;101170.31;;;6.64;82.89
47524;BME280;33253;42.144;25.884;2023-03-19T05:18:34;101163.03;;;6.57;82.87
47524;BME280;33253;42.144;25.884;2023-03-19T05:20:59;101169.72;;;6.55;83.06
47524;BME280;33253;42.144;25.884;2023-03-19T05:23:25;101172.59;;;6.60;82.68
47524;BME280;33253;42.144;25.884;2023-03-19T05:25:50;101173.50;;;6.47;82.51
47524;BME280;33253;42.144;25.884;2023-03-19T05:28:15;101176.50;;;6.28;84.73
47524;BME280;33253;42.144;25.884;2023-03-19T05:30:41;101174.94;;;6.30;84.78
47524;BME280;33253;42.144;25.884;2023-03-19T05:33:07;101172.75;;;6.23;84.44
47524;BME280;33253;42.144;25.884;2023-03-19T05:35:33;101176.72;;;6.31;84.15
47524;BME280;33253;42.144;25.884;2023-03-19T05:37:58;101184.72;;;6.36;83.53
47524;BME280;33253;42.144;25.884;2023-03-19T05:40:23;101174.06;;;6.43;82.68
47524;BME280;33253;42.144;25.884;2023-03-19T05:42:49;101177.53;;;6.43;81.85
47524;BME280;33253;42.144;25.884;2023-03-19T05:45:16;101177.72;;;6.46;81.84
47524;BME280;33253;42.144;25.884;2023-03-19T05:47:41;101165.19;;;6.51;81.29
47524;BME280;33253;42.144;25.884;2023-03-19T05:50:07;101169.72;;;6.55;81.54
47524;BME280;33253;42.144;25.884;2023-03-19T05:52:32;101171.72;;;6.59;80.22
47524;BME280;33253;42.144;25.884;2023-03-19T05:54:58;101174.47;;;6.62;79.05
47524;BME280;33253;42.144;25.884;2023-03-19T05:57:23;101176.72;;;6.58;77.90
47524;BME280;33253;42.144;25.884;2023-03-19T05:59:48;101179.09;;;6.55;77.50
47524;BME280;33253;42.144;25.884;2023-03-19T06:02:14;101172.09;;;6.52;77.36
47524;BME280;33253;42.144;25.884;2023-03-19T06:04:39;101170.72;;;6.57;78.15
47524;BME280;33253;42.144;25.884;2023-03-19T06:07:05;101167.84;;;6.53;78.18
47524;BME280;33253;42.144;25.884;2023-03-19T06:09:30;101164.19;;;6.49;78.16
47524;BME280;33253;42.144;25.884;2023-03-19T06:11:56;101167.84;;;6.53;77.92
47524;BME280;33253;42.144;25.884;2023-03-19T06:14:21;101170.53;;;6.54;77.92
47524;BME280;33253;42.144;25.884;2023-03-19T06:16:47;101170.53;;;6.54;77.84
47524;BME280;33253;42.144;25.884;2023-03-19T06:19:12;101174.84;;;6.55;77.35
47524;BME280;33253;42.144;25.884;2023-03-19T06:21:38;101179.00;;;6.53;76.77
47524;BME280;33253;42.144;25.884;2023-03-19T06:24:03;101182.38;;;6.52;76.32
47524;BME280;33253;42.144;25.884;2023-03-19T06:26:28;101176.53;;;6.55;76.81
47524;BME280;33253;42.144;25.884;2023-03-19T06:28:54;101187.88;;;6.58;76.28
47524;BME280;33253;42.144;25.884;2023-03-19T06:31:19;101187.97;;;6.60;78.07
47524;BME280;33253;42.144;25.884;2023-03-19T06:33:45;101202.59;;;6.61;77.30
47524;BME280;33253;42.144;25.884;2023-03-19T06:36:10;101196.78;;;6.63;77.82
47524;BME280;33253;42.144;25.884;2023-03-19T06:38:36;101196.78;;;6.77;78.18
47524;BME280;33253;42.144;25.884;2023-03-19T06:41:01;101195.97;;;6.91;78.91
47524;BME280;33253;42.144;25.884;2023-03-19T06:43:27;101190.13;;;7.07;80.25
47524;BME280;33253;42.144;25.884;2023-03-19T06:45:53;101185.75;;;7.20;78.80
47524;BME280;33253;42.144;25.884;2023-03-19T06:48:18;101181.38;;;7.32;79.19
47524;BME280;33253;42.144;25.884;2023-03-19T06:50:46;101180.66;;;7.35;79.46
47524;BME280;33253;42.144;25.884;2023-03-19T06:53:12;101183.13;;;7.47;81.05
47524;BME280;33253;42.144;25.884;2023-03-19T06:55:37;101177.72;;;7.57;79.62
47524;BME280;33253;42.144;25.884;2023-03-19T06:58:04;101173.41;;;7.71;79.41
47524;BME280;33253;42.144;25.884;2023-03-19T07:00:29;101177.44;;;7.96;77.44
47524;BME280;33253;42.144;25.884;2023-03-19T07:02:54;101181.59;;;7.93;76.07
47524;BME280;33253;42.144;25.884;2023-03-19T07:05:20;101176.81;;;8.00;76.10
47524;BME280;33253;42.144;25.884;2023-03-19T07:07:45;101189.25;;;8.07;75.22
47524;BME280;33253;42.144;25.884;2023-03-19T07:10:10;101174.38;;;8.16;74.43
47524;BME280;33253;42.144;25.884;2023-03-19T07:12:36;101175.88;;;8.42;75.13
47524;BME280;33253;42.144;25.884;2023-03-19T07:15:04;101174.53;;;8.64;73.56
47524;BME280;33253;42.144;25.884;2023-03-19T07:17:30;101173.66;;;8.49;74.61
47524;BME280;33253;42.144;25.884;2023-03-19T07:19:55;101176.94;;;8.61;73.92
47524;BME280;33253;42.144;25.884;2023-03-19T07:22:21;101175.66;;;8.69;75.35
47524;BME280;33253;42.144;25.884;2023-03-19T07:24:46;101177.06;;;8.79;75.55
47524;BME280;33253;42.144;25.884;2023-03-19T07:27:11;101159.56;;;8.88;75.57
47524;BME280;33253;42.144;25.884;2023-03-19T07:29:37;101165.78;;;8.77;74.03
47524;BME280;33253;42.144;25.884;2023-03-19T07:32:02;101165.91;;;8.79;75.60
47524;BME280;33253;42.144;25.884;2023-03-19T07:34:28;101172.44;;;8.88;73.79
47524;BME280;33253;42.144;25.884;2023-03-19T07:36:53;101165.84;;;8.94;73.63
47524;BME280;33253;42.144;25.884;2023-03-19T07:39:21;101159.41;;;9.02;73.16
47524;BME280;33253;42.144;25.884;2023-03-19T07:41:46;101160.97;;;9.15;73.31
47524;BME280;33253;42.144;25.884;2023-03-19T07:44:12;101162.03;;;9.18;73.29
47524;BME280;33253;42.144;25.884;2023-03-19T07:46:38;101168.25;;;9.55;72.99
47524;BME280;33253;42.144;25.884;2023-03-19T07:49:03;101161.28;;;9.70;73.37
47524;BME280;33253;42.144;25.884;2023-03-19T07:51:28;101162.16;;;9.87;76.42
47524;BME280;33253;42.144;25.884;2023-03-19T07:53:54;101158.47;;;9.82;74.99
47524;BME280;33253;42.144;25.884;2023-03-19T07:56:19;101159.97;;;9.95;74.30
47524;BME280;33253;42.144;25.884;2023-03-19T07:58:45;101161.97;;;10.01;73.56
47524;BME280;33253;42.144;25.884;2023-03-19T08:01:10;101159.78;;;10.09;72.61
47524;BME280;33253;42.144;25.884;2023-03-19T08:03:36;101163.22;;;10.26;72.93
47524;BME280;33253;42.144;25.884;2023-03-19T08:06:01;101160.75;;;10.29;74.04
47524;BME280;33253;42.144;25.884;2023-03-19T08:08:27;101156.97;;;10.39;72.47
47524;BME280;33253;42.144;25.884;2023-03-19T08:10:53;101157.03;;;10.40;71.15
47524;BME280;33253;42.144;25.884;2023-03-19T08:13:18;101158.97;;;10.28;70.47
47524;BME280;33253;42.144;25.884;2023-03-19T08:15:44;101163.31;;;10.45;69.65
47524;BME280;33253;42.144;25.884;2023-03-19T08:18:09;101151.09;;;10.59;68.98
47524;BME280;33253;42.144;25.884;2023-03-19T08:20:34;101148.34;;;10.74;69.48
47524;BME280;33253;42.144;25.884;2023-03-19T08:23:00;101148.94;;;10.50;71.17
47524;BME280;33253;42.144;25.884;2023-03-19T08:25:25;101145.84;;;10.58;72.23
47524;BME280;33253;42.144;25.884;2023-03-19T08:27:51;101148.13;;;10.51;70.38
47524;BME280;33253;42.144;25.884;2023-03-19T08:30:17;101143.63;;;10.47;70.85
47524;BME280;33253;42.144;25.884;2023-03-19T08:32:42;101148.53;;;10.79;70.98
47524;BME280;33253;42.144;25.884;2023-03-19T08:35:10;101142.00;;;11.05;69.14
47524;BME280;33253;42.144;25.884;2023-03-19T08:37:37;101143.19;;;11.12;69.41
47524;BME280;33253;42.144;25.884;2023-03-19T08:40:02;101139.44;;;11.25;69.45
47524;BME280;33253;42.144;25.884;2023-03-19T08:42:29;101134.56;;;11.51;72.04
47524;BME280;33253;42.144;25.884;2023-03-19T08:44:54;101141.41;;;11.70;69.15
47524;BME280;33253;42.144;25.884;2023-03-19T08:47:19;101137.53;;;11.60;67.37
47524;BME280;33253;42.144;25.884;2023-03-19T08:49:48;101132.06;;;11.73;68.83
47524;BME280;33253;42.144;25.884;2023-03-19T08:52:13;101133.09;;;11.96;69.57
47524;BME280;33253;42.144;25.884;2023-03-19T08:54:39;101124.56;;;12.20;68.53
47524;BME280;33253;42.144;25.884;2023-03-19T08:57:04;101119.91;;;12.33;66.28
47524;BME280;33253;42.144;25.884;2023-03-19T08:59:30;101122.78;;;12.40;65.88
47524;BME280;33253;42.144;25.884;2023-03-19T09:01:55;101116.03;;;12.44;66.08
47524;BME280;33253;42.144;25.884;2023-03-19T09:04:21;101109.19;;;12.46;66.83
47524;BME280;33253;42.144;25.884;2023-03-19T09:06:47;101114.97;;;12.39;68.91
47524;BME280;33253;42.144;25.884;2023-03-19T09:09:19;101110.53;;;11.94;66.22
47524;BME280;33253;42.144;25.884;2023-03-19T09:11:44;101111.94;;;11.66;68.25
47524;BME280;33253;42.144;25.884;2023-03-19T09:14:10;101110.81;;;12.00;66.16
47524;BME280;33253;42.144;25.884;2023-03-19T09:16:36;101104.72;;;12.21;65.53
47524;BME280;33253;42.144;25.884;2023-03-19T09:19:01;101107.25;;;12.40;64.49
47524;BME280;33253;42.144;25.884;2023-03-19T09:21:27;101106.97;;;12.55;63.92
47524;BME280;33253;42.144;25.884;2023-03-19T09:23:52;101100.69;;;12.71;63.29
47524;BME280;33253;42.144;25.884;2023-03-19T09:26:17;101097.50;;;12.78;62.59
47524;BME280;33253;42.144;25.884;2023-03-19T09:28:43;101097.19;;;12.93;62.65
47524;BME280;33253;42.144;25.884;2023-03-19T09:31:09;101088.56;;;13.17;62.68
47524;BME280;33253;42.144;25.884;2023-03-19T09:33:35;101086.44;;;13.31;61.83
47524;BME280;33253;42.144;25.884;2023-03-19T09:36:02;101082.25;;;13.10;63.21
47524;BME280;33253;42.144;25.884;2023-03-19T09:38:27;101074.91;;;13.23;64.32
47524;BME280;33253;42.144;25.884;2023-03-19T09:46:03;101059.66;;;13.81;59.62
47524;BME280;33253;42.144;25.884;2023-03-19T09:48:34;101056.50;;;13.91;59.04
47524;BME280;33253;42.144;25.884;2023-03-19T09:51:04;101055.78;;;13.95;59.55
47524;BME280;33253;42.144;25.884;2023-03-19T09:55:56;101054.38;;;14.34;62.54
47524;BME280;33253;42.144;25.884;2023-03-19T09:58:30;101054.56;;;14.40;59.35
47524;BME280;33253;42.144;25.884;2023-03-19T10:00:57;101047.50;;;14.63;60.67
47524;BME280;33253;42.144;25.884;2023-03-19T10:08:36;101046.00;;;15.00;58.03
47524;BME280;33253;42.144;25.884;2023-03-19T10:13:55;101038.31;;;14.75;63.02
47524;BME280;33253;42.144;25.884;2023-03-19T10:16:25;101030.28;;;14.97;60.38
47524;BME280;33253;42.144;25.884;2023-03-19T10:18:51;101025.03;;;14.94;60.61
47524;BME280;33253;42.144;25.884;2023-03-19T10:24:11;101020.41;;;15.16;56.37
47524;BME280;33253;42.144;25.884;2023-03-19T10:26:38;101019.47;;;15.14;59.35
47524;BME280;33253;42.144;25.884;2023-03-19T10:29:08;101018.13;;;14.96;57.29
47524;BME280;33253;42.144;25.884;2023-03-19T10:36:26;100993.03;;;14.97;57.43
47524;BME280;33253;42.144;25.884;2023-03-19T10:38:51;100991.28;;;14.97;58.48
47524;BME280;33253;42.144;25.884;2023-03-19T10:43:47;100986.75;;;15.57;55.62
47524;BME280;33253;42.144;25.884;2023-03-19T10:46:16;100990.16;;;15.90;56.08
47524;BME280;33253;42.144;25.884;2023-03-19T10:48:42;100979.94;;;15.62;57.20
47524;BME280;33253;42.144;25.884;2023-03-19T10:51:09;100974.13;;;15.37;60.13
47524;BME280;33253;42.144;25.884;2023-03-19T10:53:38;100975.88;;;15.39;59.80
47524;BME280;33253;42.144;25.884;2023-03-19T10:58:33;100967.94;;;16.04;55.07
47524;BME280;33253;42.144;25.884;2023-03-19T11:01:07;100965.50;;;16.12;54.89
47524;BME280;33253;42.144;25.884;2023-03-19T11:03:37;100960.59;;;16.26;53.60
47524;BME280;33253;42.144;25.884;2023-03-19T11:08:28;100943.34;;;16.75;52.22
47524;BME280;33253;42.144;25.884;2023-03-19T11:10:56;100944.28;;;16.79;52.85
47524;BME280;33253;42.144;25.884;2023-03-19T11:13:22;100943.31;;;16.74;52.37
47524;BME280;33253;42.144;25.884;2023-03-19T11:15:50;100932.31;;;16.89;52.54
47524;BME280;33253;42.144;25.884;2023-03-19T11:18:23;100927.28;;;16.98;55.03
47524;BME280;33253;42.144;25.884;2023-03-19T11:20:56;100925.88;;;17.17;51.81
47524;BME280;33253;42.144;25.884;2023-03-19T11:23:25;100923.28;;;16.28;53.85
47524;BME280;33253;42.144;25.884;2023-03-19T11:25:52;100917.94;;;16.22;54.83
47524;BME280;33253;42.144;25.884;2023-03-19T11:28:23;100914.16;;;16.49;54.21
47524;BME280;33253;42.144;25.884;2023-03-19T11:43:57;100897.53;;;17.39;51.72
47524;BME280;33253;42.144;25.884;2023-03-19T11:56:31;100874.59;;;17.77;49.67
47524;BME280;33253;42.144;25.884;2023-03-19T12:01:47;100874.16;;;16.93;51.08
47524;BME280;33253;42.144;25.884;2023-03-19T12:09:55;100871.75;;;17.05;50.72
47524;BME280;33253;42.144;25.884;2023-03-19T12:12:33;100870.31;;;17.24;50.39
47524;BME280;33253;42.144;25.884;2023-03-19T12:15:04;100870.78;;;17.55;49.29
47524;BME280;33253;42.144;25.884;2023-03-19T12:17:37;100862.84;;;17.48;48.54
47524;BME280;33253;42.144;25.884;2023-03-19T12:28:28;100856.59;;;17.98;47.76
47524;BME280;33253;42.144;25.884;2023-03-19T12:33:30;100843.66;;;17.45;49.56
47524;BME280;33253;42.144;25.884;2023-03-19T12:36:00;100840.66;;;17.19;50.35
47524;BME280;33253;42.144;25.884;2023-03-19T12:40:55;100846.28;;;17.45;49.35
47524;BME280;33253;42.144;25.884;2023-03-19T12:43:27;100837.63;;;17.48;49.35
47524;BME280;33253;42.144;25.884;2023-03-19T12:46:00;100836.00;;;17.55;48.74
47524;BME280;33253;42.144;25.884;2023-03-19T12:48:29;100837.97;;;17.74;48.95
47524;BME280;33253;42.144;25.884;2023-03-19T12:50:58;100835.25;;;17.63;50.36
47524;BME280;33253;42.144;25.884;2023-03-19T12:53:30;100826.47;;;17.60;50.01
47524;BME280;33253;42.144;25.884;2023-03-19T12:56:01;100833.31;;;17.50;49.94
47524;BME280;33253;42.144;25.884;2023-03-19T13:01:05;100827.31;;;16.99;52.80
47524;BME280;33253;42.144;25.884;2023-03-19T13:03:51;100827.59;;;17.18;52.79
47524;BME280;33253;42.144;25.884;2023-03-19T13:06:19;100814.75;;;17.28;51.86
47524;BME280;33253;42.144;25.884;2023-03-19T13:08:49;100812.13;;;17.28;52.51
47524;BME280;33253;42.144;25.884;2023-03-19T13:11:18;100816.41;;;17.25;52.98
47524;BME280;33253;42.144;25.884;2023-03-19T13:18:45;100808.94;;;17.50;52.79
47524;BME280;33253;42.144;25.884;2023-03-19T13:23:46;100805.50;;;16.95;53.53
47524;BME280;33253;42.144;25.884;2023-03-19T13:26:13;100797.72;;;16.97;53.18
47524;BME280;33253;42.144;25.884;2023-03-19T13:28:57;100799.09;;;16.75;52.62
47524;BME280;33253;42.144;25.884;2023-03-19T13:31:24;100795.66;;;16.79;53.81
47524;BME280;33253;42.144;25.884;2023-03-19T13:33:50;100789.44;;;16.71;53.70
47524;BME280;33253;42.144;25.884;2023-03-19T13:36:17;100791.38;;;16.82;54.02
47524;BME280;33253;42.144;25.884;2023-03-19T13:38:43;100786.34;;;16.93;53.82
47524;BME280;33253;42.144;25.884;2023-03-19T13:43:54;100781.00;;;16.87;54.33
47524;BME280;33253;42.144;25.884;2023-03-19T13:53:41;100774.81;;;16.79;55.65
47524;BME280;33253;42.144;25.884;2023-03-19T13:56:16;100777.63;;;16.41;56.73
47524;BME280;33253;42.144;25.884;2023-03-19T13:58:49;100774.16;;;16.40;58.56
47524;BME280;33253;42.144;25.884;2023-03-19T14:03:54;100764.25;;;16.22;57.39
47524;BME280;33253;42.144;25.884;2023-03-19T14:06:39;100762.06;;;16.44;57.57
47524;BME280;33253;42.144;25.884;2023-03-19T14:09:06;100772.31;;;16.36;56.57
47524;BME280;33253;42.144;25.884;2023-03-19T14:11:50;100765.22;;;16.27;56.65
47524;BME280;33253;42.144;25.884;2023-03-19T14:14:15;100757.63;;;16.40;56.40
47524;BME280;33253;42.144;25.884;2023-03-19T14:16:41;100765.72;;;16.55;56.40
47524;BME280;33253;42.144;25.884;2023-03-19T14:19:11;100767.31;;;16.48;56.54
47524;BME280;33253;42.144;25.884;2023-03-19T14:24:20;100763.38;;;16.72;55.52
47524;BME280;33253;42.144;25.884;2023-03-19T14:26:45;100756.00;;;16.45;57.15